createdAt,value
2022-09-03T00:01:02.238Z,12.76
2022-09-03T00:02:15.329Z,12.86
2022-09-03T00:03:19.158Z,12.87
2022-09-03T00:04:39.938Z,12.82
2022-09-03T00:05:46.427Z,12.86
2022-09-03T00:06:50.149Z,12.83
2022-09-03T00:08:03.253Z,12.76
2022-09-03T00:09:15.942Z,12.80
2022-09-03T00:10:22.759Z,12.80
2022-09-03T00:11:29.324Z,12.69
2022-09-03T00:12:33.782Z,12.65
2022-09-03T00:13:54.031Z,12.77
2022-09-03T00:15:06.764Z,12.81
2022-09-03T00:16:10.676Z,12.85
2022-09-03T00:17:17.383Z,12.88
2022-09-03T00:18:21.188Z,12.88
2022-09-03T00:19:25.533Z,12.85
2022-09-03T00:20:33.414Z,12.84
2022-09-03T00:21:40.189Z,12.84
2022-09-03T00:22:53.071Z,12.87
2022-09-03T00:23:56.591Z,12.84
2022-09-03T00:24:58.948Z,12.86
2022-09-03T00:26:02.915Z,12.88
2022-09-03T00:27:06.643Z,12.91
2022-09-03T00:28:13.368Z,12.83
2022-09-03T00:29:17.141Z,12.79
2022-09-03T00:30:19.086Z,12.80
2022-09-03T00:31:22.949Z,12.74
2022-09-03T00:32:36.131Z,12.81
2022-09-03T00:33:39.118Z,12.81
2022-09-03T00:34:45.626Z,12.80
2022-09-03T00:35:49.412Z,12.79
2022-09-03T00:36:51.421Z,12.83
2022-09-03T00:37:53.965Z,12.80
2022-09-03T00:38:57.133Z,12.85
2022-09-03T00:39:59.243Z,12.84
2022-09-03T00:41:19.661Z,12.78
2022-09-03T00:42:41.930Z,12.70
2022-09-03T00:43:48.459Z,12.73
2022-09-03T00:44:55.210Z,12.84
2022-09-03T00:46:05.030Z,12.82
2022-09-03T00:47:14.786Z,12.86
2022-09-03T00:48:27.861Z,12.87
2022-09-03T00:49:42.394Z,12.74
2022-09-03T00:50:49.103Z,12.88
2022-09-03T00:52:09.559Z,12.90
2022-09-03T00:53:13.391Z,12.86
2022-09-03T00:54:17.115Z,12.91
2022-09-03T00:55:20.937Z,12.87
2022-09-03T00:56:24.880Z,12.86
2022-09-03T00:57:32.093Z,12.78
2022-09-03T00:58:35.804Z,12.66
2022-09-03T00:59:48.705Z,12.65
2022-09-03T01:00:50.908Z,12.70
2022-09-03T01:01:54.885Z,12.73
2022-09-03T01:03:11.127Z,12.78
2022-09-03T01:04:23.959Z,12.81
2022-09-03T01:05:27.709Z,12.75
2022-09-03T01:06:48.298Z,12.81
2022-09-03T01:08:07.392Z,12.81
2022-09-03T01:09:29.441Z,12.84
2022-09-03T01:10:45.247Z,12.87
2022-09-03T01:11:58.313Z,12.86
2022-09-03T01:13:18.925Z,12.78
2022-09-03T01:14:32.169Z,12.79
2022-09-03T01:15:35.933Z,12.81
2022-09-03T01:16:45.852Z,12.75
2022-09-03T01:17:52.632Z,12.75
2022-09-03T01:19:02.317Z,12.80
2022-09-03T01:20:22.815Z,12.80
2022-09-03T01:21:29.684Z,12.77
2022-09-03T01:22:50.895Z,12.80
2022-09-03T01:24:06.689Z,12.74
2022-09-03T01:25:16.167Z,12.81
2022-09-03T01:26:29.219Z,12.81
2022-09-03T01:27:32.926Z,12.75
2022-09-03T01:28:51.785Z,12.70
2022-09-03T01:29:58.340Z,12.70
2022-09-03T01:31:05.088Z,12.74
2022-09-03T01:32:08.840Z,12.74
2022-09-03T01:33:12.700Z,12.75
2022-09-03T01:34:19.178Z,12.66
2022-09-03T01:35:22.941Z,12.70
2022-09-03T01:36:27.670Z,12.63
2022-09-03T01:37:37.400Z,12.56
2022-09-03T01:38:41.239Z,12.65
2022-09-03T01:39:46.377Z,12.69
2022-09-03T01:41:05.795Z,12.67
2022-09-03T01:42:09.500Z,12.67
2022-09-03T01:43:22.293Z,12.60
2022-09-03T01:44:35.051Z,12.49
2022-09-03T01:45:41.922Z,12.57
2022-09-03T01:46:47.403Z,12.59
2022-09-03T01:48:08.032Z,12.67
2022-09-03T01:49:21.083Z,12.69
2022-09-03T01:50:30.716Z,12.56
2022-09-03T01:51:32.771Z,12.64
2022-09-03T01:52:39.229Z,12.68
2022-09-03T01:53:46.492Z,12.69
2022-09-03T01:54:50.244Z,12.60
2022-09-03T01:56:03.196Z,12.70
2022-09-03T01:57:19.133Z,12.57
2022-09-03T01:58:15.790Z,12.66
2022-09-03T01:59:32.064Z,12.30
2022-09-03T02:00:35.788Z,12.69
2022-09-03T02:01:39.687Z,12.65
2022-09-03T02:02:42.572Z,12.51
2022-09-03T02:03:45.263Z,12.52
2022-09-03T02:04:58.747Z,12.46
2022-09-03T02:06:00.799Z,12.39
2022-09-03T02:07:03.179Z,12.39
2022-09-03T02:08:06.901Z,12.45
2022-09-03T02:09:09.154Z,12.39
2022-09-03T02:10:13.190Z,12.41
2022-09-03T02:11:15.186Z,12.45
2022-09-03T02:12:17.967Z,12.51
2022-09-03T02:13:24.647Z,12.52
2022-09-03T02:14:27.028Z,12.51
2022-09-03T02:15:29.066Z,12.59
2022-09-03T02:16:32.780Z,12.52
2022-09-03T02:17:35.523Z,12.55
2022-09-03T02:18:39.268Z,12.61
2022-09-03T02:19:41.202Z,12.47
2022-09-03T02:20:44.101Z,12.54
2022-09-03T02:21:54.019Z,12.55
2022-09-03T02:22:57.171Z,12.58
2022-09-03T02:23:59.129Z,12.46
2022-09-03T02:25:01.197Z,12.56
2022-09-03T02:26:03.293Z,12.46
2022-09-03T02:27:05.151Z,12.47
2022-09-03T02:28:17.270Z,12.45
2022-09-03T02:29:12.733Z,12.53
2022-09-03T02:30:14.809Z,12.48
2022-09-03T02:31:16.851Z,12.51
2022-09-03T02:32:18.915Z,12.46
2022-09-03T02:33:20.786Z,12.41
2022-09-03T02:34:22.606Z,12.48
2022-09-03T02:35:24.658Z,12.44
2022-09-03T02:36:34.611Z,12.48
2022-09-03T02:37:36.474Z,12.45
2022-09-03T02:38:40.197Z,12.45
2022-09-03T02:39:43.917Z,12.37
2022-09-03T02:40:46.164Z,12.42
2022-09-03T02:41:52.893Z,12.47
2022-09-03T02:42:55.163Z,12.43
2022-09-03T02:44:02.189Z,12.49
2022-09-03T02:45:08.749Z,12.54
2022-09-03T02:46:12.772Z,12.37
2022-09-03T02:47:14.764Z,12.38
2022-09-03T02:48:18.593Z,12.26
2022-09-03T02:49:20.722Z,12.36
2022-09-03T02:50:23.591Z,12.45
2022-09-03T02:51:25.542Z,12.49
2022-09-03T02:52:28.974Z,12.47
2022-09-03T02:53:30.798Z,12.51
2022-09-03T02:54:32.909Z,12.46
2022-09-03T02:55:35.241Z,12.51
2022-09-03T02:56:37.405Z,12.09
2022-09-03T02:57:39.246Z,12.38
2022-09-03T02:58:41.119Z,12.44
2022-09-03T02:59:43.343Z,12.41
2022-09-03T03:00:45.420Z,12.44
2022-09-03T03:01:47.875Z,12.43
2022-09-03T03:02:51.003Z,12.41
2022-09-03T03:03:53.123Z,12.43
2022-09-03T03:04:55.196Z,12.37
2022-09-03T03:06:04.628Z,12.39
2022-09-03T03:07:07.230Z,12.35
2022-09-03T03:08:09.319Z,12.38
2022-09-03T03:09:11.285Z,12.37
2022-09-03T03:10:13.655Z,12.27
2022-09-03T03:11:16.440Z,12.24
2022-09-03T03:12:18.315Z,12.18
2022-09-03T03:13:20.273Z,12.25
2022-09-03T03:14:22.482Z,12.30
2022-09-03T03:15:24.293Z,12.31
2022-09-03T03:16:26.516Z,12.33
2022-09-03T03:17:28.594Z,12.29
2022-09-03T03:18:30.587Z,12.33
2022-09-03T03:19:32.436Z,12.31
2022-09-03T03:20:34.395Z,12.30
2022-09-03T03:21:36.450Z,12.28
2022-09-03T03:22:38.397Z,12.26
2022-09-03T03:23:40.432Z,12.15
2022-09-03T03:24:42.293Z,12.10
2022-09-03T03:25:44.227Z,12.10
2022-09-03T03:26:46.359Z,12.14
2022-09-03T03:27:48.163Z,12.22
2022-09-03T03:28:50.633Z,12.16
2022-09-03T03:29:52.580Z,12.08
2022-09-03T03:30:54.632Z,12.09
2022-09-03T03:31:56.494Z,12.16
2022-09-03T03:32:58.405Z,12.23
2022-09-03T03:34:01.623Z,12.27
2022-09-03T03:35:04.447Z,12.34
2022-09-03T03:36:07.235Z,11.99
2022-09-03T03:37:09.084Z,12.02
2022-09-03T03:38:10.937Z,12.16
2022-09-03T03:39:12.779Z,12.23
2022-09-03T03:40:14.765Z,12.29
2022-09-03T03:41:21.276Z,12.28
2022-09-03T03:42:23.424Z,12.41
2022-09-03T03:43:25.315Z,12.42
2022-09-03T03:44:27.270Z,12.36
2022-09-03T03:45:29.129Z,12.42
2022-09-03T03:46:32.505Z,12.44
2022-09-03T03:47:34.341Z,12.45
2022-09-03T03:48:36.513Z,12.48
2022-09-03T03:49:38.452Z,12.34
2022-09-03T03:50:41.624Z,12.52
2022-09-03T03:51:44.324Z,12.53
2022-09-03T03:52:46.131Z,12.46
2022-09-03T03:53:48.075Z,12.48
2022-09-03T03:54:50.504Z,12.48
2022-09-03T03:56:00.120Z,12.53
2022-09-03T03:57:01.948Z,12.46
2022-09-03T03:58:04.078Z,12.48
2022-09-03T03:59:06.278Z,12.53
2022-09-03T04:00:08.751Z,12.49
2022-09-03T04:01:15.431Z,12.52
2022-09-03T04:02:17.600Z,12.45
2022-09-03T04:03:19.914Z,12.53
2022-09-03T04:04:21.991Z,12.56
2022-09-03T04:05:24.065Z,12.57
2022-09-03T04:06:26.333Z,12.60
2022-09-03T04:07:28.271Z,12.61
2022-09-03T04:08:30.429Z,12.59
2022-09-03T04:09:32.505Z,12.64
2022-09-03T04:10:35.272Z,12.64
2022-09-03T04:11:37.203Z,12.68
2022-09-03T04:12:39.046Z,12.70
2022-09-03T04:13:41.604Z,12.66
2022-09-03T04:14:43.500Z,12.67
2022-09-03T04:15:45.445Z,12.63
2022-09-03T04:16:47.855Z,12.67
2022-09-03T04:17:49.822Z,12.72
2022-09-03T04:18:53.081Z,12.75
2022-09-03T04:19:54.879Z,12.64
2022-09-03T04:21:04.077Z,12.66
2022-09-03T04:22:06.032Z,12.73
2022-09-03T04:23:08.000Z,12.79
2022-09-03T04:24:09.945Z,12.86
2022-09-03T04:25:11.845Z,12.87
2022-09-03T04:26:15.431Z,12.86
2022-09-03T04:27:17.285Z,12.89
2022-09-03T04:28:19.247Z,12.99
2022-09-03T04:29:21.068Z,12.94
2022-09-03T04:30:23.135Z,12.96
2022-09-03T04:31:25.129Z,13.03
2022-09-03T04:32:27.358Z,12.91
2022-09-03T04:33:30.456Z,12.93
2022-09-03T04:34:32.365Z,12.90
2022-09-03T04:35:34.298Z,12.87
2022-09-03T04:36:37.973Z,12.96
2022-09-03T04:37:39.941Z,12.95
2022-09-03T04:38:42.563Z,12.99
2022-09-03T04:39:44.480Z,12.89
2022-09-03T04:40:48.258Z,12.94
2022-09-03T04:41:50.108Z,13.00
2022-09-03T04:42:53.951Z,12.91
2022-09-03T04:43:57.017Z,12.91
2022-09-03T04:44:59.108Z,13.01
2022-09-03T04:46:02.190Z,12.99
2022-09-03T04:47:04.710Z,13.04
2022-09-03T04:48:06.544Z,12.98
2022-09-03T04:49:08.496Z,13.01
2022-09-03T04:50:10.649Z,13.06
2022-09-03T04:51:14.011Z,13.10
2022-09-03T04:52:15.838Z,13.14
2022-09-03T04:53:17.883Z,13.08
2022-09-03T04:54:19.862Z,13.22
2022-09-03T04:55:22.494Z,13.16
2022-09-03T04:56:26.395Z,13.05
2022-09-03T04:57:28.354Z,13.10
2022-09-03T04:58:30.399Z,13.16
2022-09-03T04:59:32.416Z,13.12
2022-09-03T05:00:35.588Z,13.15
2022-09-03T05:01:38.815Z,13.06
2022-09-03T05:02:40.753Z,13.02
2022-09-03T05:03:43.974Z,12.90
2022-09-03T05:04:45.951Z,12.60
2022-09-03T05:05:54.974Z,12.56
2022-09-03T05:06:57.130Z,12.12
2022-09-03T05:08:00.928Z,12.23
2022-09-03T05:09:03.247Z,12.20
2022-09-03T05:10:07.189Z,12.36
2022-09-03T05:11:09.713Z,12.51
2022-09-03T05:12:11.655Z,12.59
2022-09-03T05:13:13.492Z,12.52
2022-09-03T05:14:16.864Z,12.47
2022-09-03T05:15:18.798Z,12.44
2022-09-03T05:16:22.179Z,12.19
2022-09-03T05:17:24.118Z,12.37
2022-09-03T05:18:26.196Z,12.35
2022-09-03T05:19:28.037Z,12.48
2022-09-03T05:20:30.553Z,12.59
2022-09-03T05:21:32.437Z,12.63
2022-09-03T05:22:34.519Z,12.65
2022-09-03T05:23:37.822Z,12.57
2022-09-03T05:24:39.684Z,12.35
2022-09-03T05:25:41.648Z,12.50
2022-09-03T05:26:45.411Z,12.49
2022-09-03T05:27:47.195Z,12.52
2022-09-03T05:28:50.933Z,12.70
2022-09-03T05:29:52.767Z,12.76
2022-09-03T05:30:59.916Z,12.86
2022-09-03T05:32:02.405Z,12.92
2022-09-03T05:33:04.283Z,13.00
2022-09-03T05:34:07.542Z,13.06
2022-09-03T05:35:09.668Z,13.08
2022-09-03T05:36:16.139Z,12.90
2022-09-03T05:37:17.951Z,12.63
2022-09-03T05:38:20.030Z,12.88
2022-09-03T05:39:21.994Z,13.00
2022-09-03T05:40:24.347Z,13.07
2022-09-03T05:41:27.444Z,13.17
2022-09-03T05:42:29.287Z,13.26
2022-09-03T05:43:32.128Z,13.36
2022-09-03T05:44:34.016Z,13.31
2022-09-03T05:45:35.987Z,13.35
2022-09-03T05:46:37.849Z,13.37
2022-09-03T05:47:40.263Z,13.40
2022-09-03T05:48:42.306Z,13.42
2022-09-03T05:49:44.156Z,13.44
2022-09-03T05:50:47.088Z,13.54
2022-09-03T05:51:48.981Z,13.51
2022-09-03T05:52:51.832Z,13.59
2022-09-03T05:53:53.797Z,13.55
2022-09-03T05:54:55.719Z,13.56
2022-09-03T05:55:58.571Z,13.65
2022-09-03T05:57:00.629Z,13.71
2022-09-03T05:58:02.491Z,13.71
2022-09-03T05:59:05.270Z,13.71
2022-09-03T06:00:08.077Z,13.70
2022-09-03T06:01:11.989Z,13.59
2022-09-03T06:02:14.103Z,13.55
2022-09-03T06:03:16.503Z,13.56
2022-09-03T06:04:18.648Z,13.66
2022-09-03T06:05:20.820Z,13.72
2022-09-03T06:06:22.987Z,13.67
2022-09-03T06:07:25.064Z,13.74
2022-09-03T06:08:26.958Z,13.82
2022-09-03T06:09:28.811Z,13.88
2022-09-03T06:10:40.217Z,13.98
2022-09-03T06:11:35.541Z,13.95
2022-09-03T06:12:37.466Z,13.97
2022-09-03T06:13:39.304Z,13.96
2022-09-03T06:14:41.229Z,14.09
2022-09-03T06:15:43.067Z,14.09
2022-09-03T06:16:46.363Z,14.01
2022-09-03T06:17:48.231Z,14.00
2022-09-03T06:18:50.819Z,14.10
2022-09-03T06:19:54.440Z,14.26
2022-09-03T06:20:57.454Z,14.21
2022-09-03T06:21:59.544Z,14.32
2022-09-03T06:23:01.584Z,14.32
2022-09-03T06:24:03.743Z,14.30
2022-09-03T06:25:06.078Z,14.32
2022-09-03T06:26:09.927Z,14.28
2022-09-03T06:27:12.802Z,14.11
2022-09-03T06:28:16.778Z,14.34
2022-09-03T06:29:20.673Z,14.37
2022-09-03T06:30:22.598Z,14.55
2022-09-03T06:31:24.918Z,14.55
2022-09-03T06:32:26.959Z,14.45
2022-09-03T06:33:30.733Z,14.46
2022-09-03T06:34:32.693Z,14.50
2022-09-03T06:35:35.837Z,14.55
2022-09-03T06:36:38.474Z,14.55
2022-09-03T06:37:40.900Z,14.63
2022-09-03T06:38:43.417Z,14.64
2022-09-03T06:39:45.610Z,14.69
2022-09-03T06:40:52.678Z,14.77
2022-09-03T06:41:54.753Z,14.74
2022-09-03T06:42:57.816Z,14.72
2022-09-03T06:44:04.373Z,14.73
2022-09-03T06:45:07.334Z,14.83
2022-09-03T06:46:12.796Z,15.04
2022-09-03T06:47:14.753Z,15.12
2022-09-03T06:48:16.780Z,15.16
2022-09-03T06:49:18.946Z,15.12
2022-09-03T06:50:21.737Z,15.15
2022-09-03T06:51:25.472Z,15.11
2022-09-03T06:52:28.392Z,15.08
2022-09-03T06:53:32.178Z,15.17
2022-09-03T06:54:34.290Z,15.16
2022-09-03T06:55:36.543Z,14.87
2022-09-03T06:56:40.835Z,15.12
2022-09-03T06:57:43.056Z,15.16
2022-09-03T06:58:46.300Z,15.21
2022-09-03T06:59:48.329Z,15.30
2022-09-03T07:00:51.246Z,15.41
2022-09-03T07:01:53.367Z,15.41
2022-09-03T07:02:56.194Z,15.52
2022-09-03T07:03:59.279Z,15.68
2022-09-03T07:05:01.197Z,15.73
2022-09-03T07:06:07.889Z,15.82
2022-09-03T07:07:09.741Z,15.83
2022-09-03T07:08:11.648Z,15.87
2022-09-03T07:09:13.492Z,15.93
2022-09-03T07:10:15.746Z,15.96
2022-09-03T07:11:19.449Z,15.92
2022-09-03T07:12:21.469Z,15.98
2022-09-03T07:13:23.441Z,16.12
2022-09-03T07:14:25.386Z,16.16
2022-09-03T07:15:29.282Z,16.14
2022-09-03T07:16:35.577Z,16.15
2022-09-03T07:17:37.615Z,16.23
2022-09-03T07:18:39.929Z,16.21
2022-09-03T07:19:41.897Z,16.30
2022-09-03T07:20:43.900Z,16.29
2022-09-03T07:21:49.543Z,16.35
2022-09-03T07:22:49.708Z,16.45
2022-09-03T07:23:52.810Z,16.45
2022-09-03T07:24:54.649Z,16.52
2022-09-03T07:25:57.652Z,16.56
2022-09-03T07:26:59.741Z,16.53
2022-09-03T07:28:03.606Z,16.78
2022-09-03T07:29:06.939Z,16.81
2022-09-03T07:30:09.809Z,16.93
2022-09-03T07:31:13.594Z,16.90
2022-09-03T07:32:15.833Z,16.95
2022-09-03T07:33:18.056Z,16.91
2022-09-03T07:34:22.295Z,16.88
2022-09-03T07:35:24.273Z,16.78
2022-09-03T07:36:27.963Z,16.69
2022-09-03T07:37:29.783Z,16.73
2022-09-03T07:38:32.690Z,16.68
2022-09-03T07:39:34.838Z,16.55
2022-09-03T07:40:37.432Z,16.54
2022-09-03T07:41:40.387Z,16.55
2022-09-03T07:42:43.024Z,16.49
2022-09-03T07:43:45.883Z,16.53
2022-09-03T07:44:47.939Z,16.46
2022-09-03T07:45:50.369Z,16.47
2022-09-03T07:46:52.475Z,16.55
2022-09-03T07:47:54.420Z,16.62
2022-09-03T07:48:57.455Z,16.66
2022-09-03T07:49:59.341Z,16.52
2022-09-03T07:51:01.717Z,16.54
2022-09-03T07:52:03.674Z,16.64
2022-09-03T07:53:05.553Z,16.75
2022-09-03T07:54:08.968Z,16.85
2022-09-03T07:55:10.912Z,16.96
2022-09-03T07:56:13.893Z,16.93
2022-09-03T07:57:15.751Z,17.01
2022-09-03T07:58:17.583Z,16.99
2022-09-03T07:59:19.500Z,16.99
2022-09-03T08:00:21.533Z,17.04
2022-09-03T08:01:24.734Z,17.24
2022-09-03T08:02:26.859Z,17.32
2022-09-03T08:03:28.932Z,17.21
2022-09-03T08:04:31.058Z,17.28
2022-09-03T08:05:33.543Z,17.24
2022-09-03T08:06:37.004Z,17.39
2022-09-03T08:07:39.174Z,17.65
2022-09-03T08:08:42.817Z,17.81
2022-09-03T08:09:44.786Z,17.74
2022-09-03T08:10:46.563Z,17.93
2022-09-03T08:11:48.582Z,18.00
2022-09-03T08:12:50.640Z,17.24
2022-09-03T08:14:00.198Z,16.74
2022-09-03T08:15:03.024Z,16.85
2022-09-03T08:16:05.230Z,17.43
2022-09-03T08:17:07.262Z,17.81
2022-09-03T08:18:09.516Z,17.95
2022-09-03T08:19:13.534Z,18.15
2022-09-03T08:20:15.796Z,18.24
2022-09-03T08:21:18.990Z,18.56
2022-09-03T08:22:21.179Z,18.60
2022-09-03T08:23:23.102Z,18.62
2022-09-03T08:24:25.258Z,18.35
2022-09-03T08:25:27.334Z,18.18
2022-09-03T08:26:31.210Z,17.89
2022-09-03T08:27:33.536Z,18.33
2022-09-03T08:28:37.539Z,18.62
2022-09-03T08:29:39.400Z,18.59
2022-09-03T08:30:41.628Z,18.42
2022-09-03T08:31:43.551Z,18.13
2022-09-03T08:32:45.649Z,17.96
2022-09-03T08:33:49.487Z,18.12
2022-09-03T08:34:51.616Z,18.00
2022-09-03T08:35:53.570Z,18.41
2022-09-03T08:36:55.731Z,18.44
2022-09-03T08:37:59.237Z,18.43
2022-09-03T08:39:02.452Z,18.12
2022-09-03T08:40:04.789Z,18.22
2022-09-03T08:41:08.712Z,18.26
2022-09-03T08:42:29.092Z,18.32
2022-09-03T08:43:32.996Z,18.17
2022-09-03T08:44:36.767Z,18.46
2022-09-03T08:45:39.001Z,18.64
2022-09-03T08:46:42.812Z,18.69
2022-09-03T08:47:49.527Z,18.68
2022-09-03T08:48:51.914Z,18.63
2022-09-03T08:50:01.462Z,18.83
2022-09-03T08:51:05.290Z,18.92
2022-09-03T08:52:10.352Z,19.05
2022-09-03T08:53:14.147Z,18.35
2022-09-03T08:54:17.756Z,18.71
2022-09-03T08:55:27.633Z,18.69
2022-09-03T08:56:32.176Z,18.77
2022-09-03T08:57:35.918Z,18.76
2022-09-03T08:58:38.316Z,18.15
2022-09-03T08:59:40.142Z,18.36
2022-09-03T09:01:00.859Z,18.34
2022-09-03T09:02:04.689Z,18.52
2022-09-03T09:03:25.460Z,18.62
2022-09-03T09:04:32.286Z,17.99
2022-09-03T09:05:39.084Z,18.38
2022-09-03T09:06:42.792Z,18.48
2022-09-03T09:07:46.494Z,18.60
2022-09-03T09:09:07.059Z,18.22
2022-09-03T09:10:10.916Z,18.16
2022-09-03T09:11:31.361Z,18.45
2022-09-03T09:12:52.833Z,18.53
2022-09-03T09:14:05.492Z,18.61
2022-09-03T09:15:26.047Z,18.61
2022-09-03T09:16:29.874Z,18.63
2022-09-03T09:17:50.140Z,18.68
2022-09-03T09:19:12.152Z,18.72
2022-09-03T09:20:32.926Z,18.69
2022-09-03T09:21:43.029Z,18.78
2022-09-03T09:22:47.350Z,18.86
2022-09-03T09:23:50.481Z,18.93
2022-09-03T09:24:53.915Z,19.06
2022-09-03T09:25:56.576Z,19.06
2022-09-03T09:26:59.900Z,19.10
2022-09-03T09:28:03.868Z,19.28
2022-09-03T09:29:07.753Z,19.37
2022-09-03T09:30:13.836Z,19.46
2022-09-03T09:31:15.716Z,19.29
2022-09-03T09:32:18.812Z,19.51
2022-09-03T09:33:23.073Z,19.37
2022-09-03T09:34:25.132Z,19.28
2022-09-03T09:35:26.941Z,19.34
2022-09-03T09:36:29.925Z,19.38
2022-09-03T09:37:31.933Z,19.25
2022-09-03T09:38:35.084Z,19.35
2022-09-03T09:39:37.078Z,19.31
2022-09-03T09:40:44.845Z,19.23
2022-09-03T09:41:46.329Z,19.25
2022-09-03T09:42:48.161Z,19.07
2022-09-03T09:43:52.114Z,19.19
2022-09-03T09:44:54.279Z,19.19
2022-09-03T09:45:58.258Z,19.10
2022-09-03T09:47:02.493Z,18.86
2022-09-03T09:48:06.195Z,18.93
2022-09-03T09:49:10.031Z,18.99
2022-09-03T09:50:26.401Z,18.95
2022-09-03T09:51:22.546Z,19.03
2022-09-03T09:52:25.687Z,18.93
2022-09-03T09:53:28.548Z,19.05
2022-09-03T09:54:30.459Z,18.97
2022-09-03T09:55:32.427Z,18.93
2022-09-03T09:56:35.339Z,18.81
2022-09-03T09:57:37.483Z,18.71
2022-09-03T09:58:39.717Z,18.73
2022-09-03T09:59:41.817Z,18.79
2022-09-03T10:00:45.684Z,18.81
2022-09-03T10:01:47.815Z,18.90
2022-09-03T10:02:51.293Z,18.98
2022-09-03T10:03:54.596Z,19.01
2022-09-03T10:05:15.083Z,18.99
2022-09-03T10:06:16.957Z,19.04
2022-09-03T10:07:29.775Z,18.97
2022-09-03T10:08:31.893Z,18.92
2022-09-03T10:09:33.995Z,18.72
2022-09-03T10:10:38.028Z,18.70
2022-09-03T10:11:41.712Z,18.74
2022-09-03T10:12:48.235Z,18.74
2022-09-03T10:13:52.031Z,18.72
2022-09-03T10:14:58.760Z,18.78
2022-09-03T10:16:02.652Z,18.81
2022-09-03T10:17:06.319Z,18.81
2022-09-03T10:18:25.592Z,18.79
2022-09-03T10:19:26.291Z,18.80
2022-09-03T10:20:33.033Z,18.89
2022-09-03T10:21:43.016Z,18.90
2022-09-03T10:22:52.475Z,18.93
2022-09-03T10:24:06.197Z,18.83
2022-09-03T10:25:05.650Z,18.90
2022-09-03T10:26:09.458Z,18.93
2022-09-03T10:27:13.231Z,18.89
2022-09-03T10:28:15.780Z,19.01
2022-09-03T10:29:22.148Z,18.93
2022-09-03T10:30:24.105Z,19.08
2022-09-03T10:31:31.013Z,19.05
2022-09-03T10:32:39.929Z,19.06
2022-09-03T10:33:59.907Z,19.03
2022-09-03T10:35:15.774Z,19.09
2022-09-03T10:36:19.630Z,19.13
2022-09-03T10:37:23.388Z,19.13
2022-09-03T10:38:29.988Z,19.21
2022-09-03T10:39:33.747Z,19.18
2022-09-03T10:40:39.290Z,19.26
2022-09-03T10:41:51.994Z,19.26
2022-09-03T10:43:05.005Z,19.26
2022-09-03T10:44:21.115Z,19.22
2022-09-03T10:45:37.751Z,19.26
2022-09-03T10:46:52.017Z,19.33
2022-09-03T10:47:58.644Z,19.01
2022-09-03T10:49:08.906Z,19.09
2022-09-03T10:50:19.092Z,19.04
2022-09-03T10:51:22.791Z,19.09
2022-09-03T10:52:35.838Z,19.11
2022-09-03T10:53:39.700Z,18.93
2022-09-03T10:54:49.621Z,18.85
2022-09-03T10:55:53.319Z,18.70
2022-09-03T10:57:03.403Z,18.90
2022-09-03T10:58:24.024Z,19.01
2022-09-03T10:59:34.068Z,19.04
2022-09-03T11:00:37.793Z,19.01
2022-09-03T11:01:44.698Z,18.85
2022-09-03T11:03:00.715Z,18.93
2022-09-03T11:04:21.586Z,18.98
2022-09-03T11:05:25.278Z,18.96
2022-09-03T11:06:28.550Z,19.00
2022-09-03T11:07:35.187Z,19.00
2022-09-03T11:08:39.027Z,18.90
2022-09-03T11:09:55.150Z,18.96
2022-09-03T11:10:58.856Z,19.00
2022-09-03T11:12:02.579Z,18.91
2022-09-03T11:13:12.484Z,18.91
2022-09-03T11:14:16.043Z,18.94
2022-09-03T11:15:19.763Z,19.05
2022-09-03T11:16:24.779Z,19.13
2022-09-03T11:17:29.428Z,19.09
2022-09-03T11:18:50.120Z,19.19
2022-09-03T11:19:56.610Z,19.29
2022-09-03T11:21:00.483Z,19.17
2022-09-03T11:22:03.769Z,19.22
2022-09-03T11:23:07.297Z,19.23
2022-09-03T11:24:12.812Z,19.15
2022-09-03T11:25:16.226Z,19.15
2022-09-03T11:26:20.104Z,19.15
2022-09-03T11:27:32.842Z,19.34
2022-09-03T11:28:39.770Z,19.34
2022-09-03T11:29:43.554Z,19.11
2022-09-03T11:30:47.380Z,19.20
2022-09-03T11:32:00.344Z,19.23
2022-09-03T11:33:04.056Z,19.23
2022-09-03T11:34:07.507Z,19.03
2022-09-03T11:35:18.261Z,19.05
2022-09-03T11:36:22.057Z,19.18
2022-09-03T11:37:25.388Z,19.27
2022-09-03T11:38:28.658Z,19.31
2022-09-03T11:39:38.458Z,19.32
2022-09-03T11:40:42.602Z,19.28
2022-09-03T11:41:46.362Z,19.27
2022-09-03T11:42:48.344Z,19.31
2022-09-03T11:43:50.188Z,19.34
2022-09-03T11:44:52.212Z,19.32
2022-09-03T11:46:05.463Z,19.44
2022-09-03T11:47:24.843Z,19.41
2022-09-03T11:48:28.741Z,19.37
2022-09-03T11:49:31.774Z,19.43
2022-09-03T11:50:33.892Z,19.60
2022-09-03T11:51:37.014Z,19.48
2022-09-03T11:52:38.912Z,19.47
2022-09-03T11:53:40.740Z,19.68
2022-09-03T11:54:43.435Z,19.60
2022-09-03T11:55:56.319Z,19.60
2022-09-03T11:57:06.457Z,19.52
2022-09-03T11:58:13.243Z,19.55
2022-09-03T11:59:25.190Z,19.50
2022-09-03T12:00:27.275Z,19.41
2022-09-03T12:01:31.196Z,19.42
2022-09-03T12:02:35.056Z,19.42
2022-09-03T12:03:38.918Z,19.41
2022-09-03T12:04:50.648Z,19.29
2022-09-03T12:05:57.600Z,19.22
2022-09-03T12:07:04.313Z,19.36
2022-09-03T12:08:23.337Z,19.18
2022-09-03T12:09:45.874Z,19.25
2022-09-03T12:10:58.685Z,19.28
2022-09-03T12:12:02.671Z,19.30
2022-09-03T12:13:20.537Z,19.31
2022-09-03T12:14:24.225Z,19.32
2022-09-03T12:15:43.611Z,19.41
2022-09-03T12:16:48.700Z,19.40
2022-09-03T12:17:52.837Z,19.40
2022-09-03T12:18:56.687Z,19.41
2022-09-03T12:19:58.793Z,19.27
2022-09-03T12:21:02.556Z,19.33
2022-09-03T12:22:04.494Z,19.27
2022-09-03T12:23:07.208Z,19.45
2022-09-03T12:24:10.877Z,19.48
2022-09-03T12:25:14.137Z,19.39
2022-09-03T12:26:18.076Z,19.42
2022-09-03T12:27:24.318Z,19.32
2022-09-03T12:28:28.049Z,19.35
2022-09-03T12:29:31.192Z,19.35
2022-09-03T12:30:33.396Z,19.54
2022-09-03T12:31:40.090Z,19.47
2022-09-03T12:32:40.947Z,19.40
2022-09-03T12:33:42.839Z,19.43
2022-09-03T12:34:44.815Z,19.51
2022-09-03T12:35:59.362Z,19.42
2022-09-03T12:37:01.845Z,19.37
2022-09-03T12:38:05.168Z,19.47
2022-09-03T12:39:11.794Z,19.41
2022-09-03T12:40:21.279Z,19.45
2022-09-03T12:41:28.237Z,19.43
2022-09-03T12:42:31.475Z,19.62
2022-09-03T12:43:43.273Z,19.50
2022-09-03T12:44:39.105Z,19.43
2022-09-03T12:46:46.359Z,19.46
2022-09-03T12:47:49.171Z,19.42
2022-09-03T12:50:13.592Z,19.28
2022-09-03T12:52:27.143Z,19.12
2022-09-03T12:53:30.887Z,19.08
2022-09-03T12:54:36.446Z,19.15
2022-09-03T12:55:40.271Z,19.23
2022-09-03T12:56:44.048Z,19.31
2022-09-03T12:57:50.667Z,19.38
2022-09-03T12:58:54.619Z,19.40
2022-09-03T12:59:58.390Z,19.46
2022-09-03T13:01:05.016Z,19.48
2022-09-03T13:02:18.351Z,19.60
2022-09-03T13:03:25.299Z,19.33
2022-09-03T13:04:29.159Z,19.56
2022-09-03T13:05:48.310Z,19.64
2022-09-03T13:06:52.221Z,19.57
2022-09-03T13:07:56.075Z,19.57
2022-09-03T13:09:03.253Z,19.61
2022-09-03T13:10:06.475Z,19.62
2022-09-03T13:11:08.451Z,19.68
2022-09-03T13:12:12.540Z,19.67
2022-09-03T13:13:22.534Z,19.58
2022-09-03T13:14:25.658Z,19.60
2022-09-03T13:15:28.172Z,19.57
2022-09-03T13:16:47.589Z,19.52
2022-09-03T13:18:00.430Z,19.50
2022-09-03T13:19:19.386Z,19.50
2022-09-03T13:20:32.627Z,19.47
2022-09-03T13:21:42.267Z,19.55
2022-09-03T13:22:52.161Z,19.44
2022-09-03T13:23:55.911Z,19.41
2022-09-03T13:25:15.140Z,19.39
2022-09-03T13:26:36.270Z,19.33
2022-09-03T13:27:43.272Z,19.15
2022-09-03T13:29:04.248Z,19.22
2022-09-03T13:30:10.463Z,19.29
2022-09-03T13:31:26.315Z,19.24
2022-09-03T13:32:30.040Z,19.24
2022-09-03T13:33:33.752Z,19.19
2022-09-03T13:34:37.470Z,19.25
2022-09-03T13:35:41.228Z,19.28
2022-09-03T13:36:47.849Z,19.08
2022-09-03T13:37:51.575Z,19.18
2022-09-03T13:38:58.164Z,19.08
2022-09-03T13:40:01.940Z,19.18
2022-09-03T13:41:08.491Z,19.23
2022-09-03T13:42:12.411Z,19.20
2022-09-03T13:43:16.159Z,19.26
2022-09-03T13:44:21.649Z,19.23
2022-09-03T13:45:31.612Z,19.25
2022-09-03T13:46:44.492Z,19.24
2022-09-03T13:47:48.211Z,19.21
2022-09-03T13:48:51.944Z,19.22
2022-09-03T13:51:13.003Z,19.41
2022-09-03T13:52:19.920Z,19.13
2022-09-03T13:53:32.783Z,19.24
2022-09-03T13:54:48.634Z,19.15
2022-09-03T13:55:47.680Z,19.18
2022-09-03T13:57:03.903Z,18.75
2022-09-03T13:58:25.463Z,18.82
2022-09-03T13:59:47.670Z,18.91
2022-09-03T14:00:54.532Z,18.93
2022-09-03T14:02:04.506Z,18.92
2022-09-03T14:03:25.113Z,18.92
2022-09-03T14:04:45.557Z,18.98